sensor_id;sensor_type;location;lat;lon;timestamp;pressure;altitude;pressure_sealevel;temperature;humidity
70200;BME280;57587;55.688;37.600;2023-04-03T00:01:08;99237.34;;;10.55;58.67
70200;BME280;57587;55.688;37.600;2023-04-03T00:03:35;99234.22;;;10.51;57.95
70200;BME280;57587;55.688;37.600;2023-04-03T00:06:03;99238.47;;;10.46;58.60
70200;BME280;57587;55.688;37.600;2023-04-03T00:08:30;99234.16;;;10.45;58.34
70200;BME280;57587;55.688;37.600;2023-04-03T00:10:58;99231.94;;;10.48;57.89
70200;BME280;57587;55.688;37.600;2023-04-03T00:13:25;99239.31;;;10.46;58.11
70200;BME280;57587;55.688;37.600;2023-04-03T00:15:52;99239.69;;;10.43;58.22
70200;BME280;57587;55.688;37.600;2023-04-03T00:18:19;99235.56;;;10.41;58.21
70200;BME280;57587;55.688;37.600;2023-04-03T00:20:47;99233.28;;;10.37;58.28
70200;BME280;57587;55.688;37.600;2023-04-03T00:23:14;99238.16;;;10.34;57.93
70200;BME280;57587;55.688;37.600;2023-04-03T00:25:41;99244.91;;;10.30;57.60
70200;BME280;57587;55.688;37.600;2023-04-03T00:28:09;99243.63;;;10.26;58.09
70200;BME280;57587;55.688;37.600;2023-04-03T00:30:36;99236.72;;;10.16;58.11
70200;BME280;57587;55.688;37.600;2023-04-03T00:33:04;99240.53;;;10.07;58.53
70200;BME280;57587;55.688;37.600;2023-04-03T00:35:31;99239.88;;;10.05;59.28
70200;BME280;57587;55.688;37.600;2023-04-03T00:38:00;99237.97;;;9.99;60.23
70200;BME280;57587;55.688;37.600;2023-04-03T00:40:41;99238.34;;;9.96;60.17
70200;BME280;57587;55.688;37.600;2023-04-03T00:43:23;99227.78;;;9.88;60.51
70200;BME280;57587;55.688;37.600;2023-04-03T00:45:52;99244.34;;;9.83;60.86
70200;BME280;57587;55.688;37.600;2023-04-03T00:48:22;99247.13;;;9.75;60.87
70200;BME280;57587;55.688;37.600;2023-04-03T00:50:52;99247.41;;;9.65;61.09
70200;BME280;57587;55.688;37.600;2023-04-03T00:53:23;99243.19;;;9.56;60.05
70200;BME280;57587;55.688;37.600;2023-04-03T00:55:54;99243.47;;;9.46;60.21
70200;BME280;57587;55.688;37.600;2023-04-03T00:58:28;99245.69;;;9.43;60.39
70200;BME280;57587;55.688;37.600;2023-04-03T01:01:03;99250.81;;;9.44;59.84
70200;BME280;57587;55.688;37.600;2023-04-03T01:03:32;99246.06;;;9.40;60.11
70200;BME280;57587;55.688;37.600;2023-04-03T01:06:02;99247.06;;;9.39;60.26
70200;BME280;57587;55.688;37.600;2023-04-03T01:08:30;99236.56;;;9.37;59.65
70200;BME280;57587;55.688;37.600;2023-04-03T01:10:57;99242.66;;;9.46;59.89
70200;BME280;57587;55.688;37.600;2023-04-03T01:13:29;99235.22;;;9.41;60.72
70200;BME280;57587;55.688;37.600;2023-04-03T01:15:56;99238.94;;;9.47;60.07
70200;BME280;57587;55.688;37.600;2023-04-03T01:18:27;99243.94;;;9.50;60.17
70200;BME280;57587;55.688;37.600;2023-04-03T01:26:44;99244.66;;;9.44;60.41
70200;BME280;57587;55.688;37.600;2023-04-03T01:29:11;99246.72;;;9.42;61.11
70200;BME280;57587;55.688;37.600;2023-04-03T01:34:20;99251.59;;;9.38;60.54
70200;BME280;57587;55.688;37.600;2023-04-03T01:36:48;99244.13;;;9.34;60.61
70200;BME280;57587;55.688;37.600;2023-04-03T01:39:16;99243.66;;;9.30;59.93
70200;BME280;57587;55.688;37.600;2023-04-03T01:41:44;99242.75;;;9.23;59.93
70200;BME280;57587;55.688;37.600;2023-04-03T01:44:17;99249.28;;;9.20;60.43
70200;BME280;57587;55.688;37.600;2023-04-03T01:46:44;99249.06;;;9.07;60.49
70200;BME280;57587;55.688;37.600;2023-04-03T01:49:12;99246.31;;;9.15;60.32
70200;BME280;57587;55.688;37.600;2023-04-03T01:51:39;99248.97;;;9.15;60.35
70200;BME280;57587;55.688;37.600;2023-04-03T01:54:06;99243.34;;;9.10;60.45
70200;BME280;57587;55.688;37.600;2023-04-03T01:56:33;99248.06;;;9.08;59.96
70200;BME280;57587;55.688;37.600;2023-04-03T01:59:00;99250.38;;;9.11;59.98
70200;BME280;57587;55.688;37.600;2023-04-03T02:01:28;99248.31;;;9.13;59.44
70200;BME280;57587;55.688;37.600;2023-04-03T02:03:55;99248.88;;;9.09;59.73
70200;BME280;57587;55.688;37.600;2023-04-03T02:06:22;99242.38;;;9.11;59.63
70200;BME280;57587;55.688;37.600;2023-04-03T02:08:50;99244.00;;;9.12;60.30
70200;BME280;57587;55.688;37.600;2023-04-03T02:11:17;99241.53;;;9.11;60.48
70200;BME280;57587;55.688;37.600;2023-04-03T02:13:44;99244.94;;;9.05;61.42
70200;BME280;57587;55.688;37.600;2023-04-03T02:16:11;99245.47;;;9.00;61.18
70200;BME280;57587;55.688;37.600;2023-04-03T02:18:40;99250.28;;;9.05;61.20
70200;BME280;57587;55.688;37.600;2023-04-03T02:21:08;99245.75;;;9.05;61.67
70200;BME280;57587;55.688;37.600;2023-04-03T02:23:35;99243.09;;;9.05;61.38
70200;BME280;57587;55.688;37.600;2023-04-03T02:26:05;99244.09;;;9.04;61.30
70200;BME280;57587;55.688;37.600;2023-04-03T02:28:33;99252.09;;;9.04;61.38
70200;BME280;57587;55.688;37.600;2023-04-03T02:31:01;99247.97;;;9.02;61.66
70200;BME280;57587;55.688;37.600;2023-04-03T02:33:30;99256.44;;;9.05;61.37
70200;BME280;57587;55.688;37.600;2023-04-03T02:35:58;99256.50;;;8.97;61.68
70200;BME280;57587;55.688;37.600;2023-04-03T02:38:26;99242.50;;;8.95;62.11
70200;BME280;57587;55.688;37.600;2023-04-03T02:40:59;99256.50;;;8.97;61.74
70200;BME280;57587;55.688;37.600;2023-04-03T02:43:27;99254.66;;;8.97;61.72
70200;BME280;57587;55.688;37.600;2023-04-03T02:45:54;99257.16;;;8.99;61.71
70200;BME280;57587;55.688;37.600;2023-04-03T02:48:22;99256.34;;;8.98;61.92
70200;BME280;57587;55.688;37.600;2023-04-03T02:50:49;99258.50;;;8.95;61.71
70200;BME280;57587;55.688;37.600;2023-04-03T02:53:17;99250.75;;;8.85;62.07
70200;BME280;57587;55.688;37.600;2023-04-03T02:55:45;99256.94;;;8.86;62.14
70200;BME280;57587;55.688;37.600;2023-04-03T02:58:12;99263.28;;;8.85;61.75
70200;BME280;57587;55.688;37.600;2023-04-03T03:00:39;99259.69;;;8.77;62.14
70200;BME280;57587;55.688;37.600;2023-04-03T03:03:07;99267.09;;;8.67;61.57
70200;BME280;57587;55.688;37.600;2023-04-03T03:05:34;99264.19;;;8.54;62.30
70200;BME280;57587;55.688;37.600;2023-04-03T03:08:02;99264.53;;;8.51;62.69
70200;BME280;57587;55.688;37.600;2023-04-03T03:10:29;99262.22;;;8.48;62.41
70200;BME280;57587;55.688;37.600;2023-04-03T03:12:56;99271.28;;;8.39;62.88
70200;BME280;57587;55.688;37.600;2023-04-03T03:15:23;99271.28;;;8.39;63.02
70200;BME280;57587;55.688;37.600;2023-04-03T03:17:50;99268.63;;;8.39;63.08
70200;BME280;57587;55.688;37.600;2023-04-03T03:20:17;99271.97;;;8.41;63.22
70200;BME280;57587;55.688;37.600;2023-04-03T03:22:44;99269.97;;;8.43;63.04
70200;BME280;57587;55.688;37.600;2023-04-03T03:25:11;99267.81;;;8.38;62.97
70200;BME280;57587;55.688;37.600;2023-04-03T03:27:39;99264.06;;;8.47;62.66
70200;BME280;57587;55.688;37.600;2023-04-03T03:30:07;99262.34;;;8.54;62.82
70200;BME280;57587;55.688;37.600;2023-04-03T03:32:34;99271.22;;;8.55;62.63
70200;BME280;57587;55.688;37.600;2023-04-03T03:35:01;99266.97;;;8.61;62.69
70200;BME280;57587;55.688;37.600;2023-04-03T03:37:29;99273.06;;;8.69;62.22
70200;BME280;57587;55.688;37.600;2023-04-03T03:39:56;99276.03;;;8.74;62.62
70200;BME280;57587;55.688;37.600;2023-04-03T03:42:23;99268.16;;;8.81;62.90
70200;BME280;57587;55.688;37.600;2023-04-03T03:44:50;99263.13;;;8.86;62.52
70200;BME280;57587;55.688;37.600;2023-04-03T03:47:19;99263.56;;;8.90;62.79
70200;BME280;57587;55.688;37.600;2023-04-03T03:49:47;99267.47;;;9.02;61.70
70200;BME280;57587;55.688;37.600;2023-04-03T03:52:15;99270.75;;;9.04;62.11
70200;BME280;57587;55.688;37.600;2023-04-03T03:54:42;99265.72;;;9.09;61.95
70200;BME280;57587;55.688;37.600;2023-04-03T03:57:10;99266.75;;;9.08;61.48
70200;BME280;57587;55.688;37.600;2023-04-03T03:59:37;99261.88;;;9.12;61.32
70200;BME280;57587;55.688;37.600;2023-04-03T04:02:05;99266.81;;;9.00;61.77
70200;BME280;57587;55.688;37.600;2023-04-03T04:04:32;99268.09;;;9.04;61.91
70200;BME280;57587;55.688;37.600;2023-04-03T04:06:59;99268.59;;;9.08;61.57
70200;BME280;57587;55.688;37.600;2023-04-03T04:09:27;99278.25;;;9.09;61.87
70200;BME280;57587;55.688;37.600;2023-04-03T04:11:55;99274.56;;;9.10;61.12
70200;BME280;57587;55.688;37.600;2023-04-03T04:14:22;99271.00;;;9.17;61.31
70200;BME280;57587;55.688;37.600;2023-04-03T04:16:50;99270.44;;;9.22;61.28
70200;BME280;57587;55.688;37.600;2023-04-03T04:19:22;99277.09;;;9.26;60.55
70200;BME280;57587;55.688;37.600;2023-04-03T04:21:49;99282.59;;;9.24;60.25
70200;BME280;57587;55.688;37.600;2023-04-03T04:24:19;99283.31;;;9.18;61.12
70200;BME280;57587;55.688;37.600;2023-04-03T04:26:48;99277.25;;;9.24;60.91
70200;BME280;57587;55.688;37.600;2023-04-03T04:29:16;99289.94;;;9.22;60.04
70200;BME280;57587;55.688;37.600;2023-04-03T04:31:46;99288.28;;;9.21;60.23
70200;BME280;57587;55.688;37.600;2023-04-03T04:34:13;99292.34;;;9.17;60.04
70200;BME280;57587;55.688;37.600;2023-04-03T04:36:41;99289.38;;;9.12;60.16
70200;BME280;57587;55.688;37.600;2023-04-03T04:39:09;99283.69;;;9.15;60.42
70200;BME280;57587;55.688;37.600;2023-04-03T04:41:37;99292.44;;;9.24;60.18
70200;BME280;57587;55.688;37.600;2023-04-03T04:44:05;99287.50;;;9.36;60.07
70200;BME280;57587;55.688;37.600;2023-04-03T04:46:33;99292.00;;;9.50;60.08
70200;BME280;57587;55.688;37.600;2023-04-03T04:49:01;99291.84;;;9.66;59.19
70200;BME280;57587;55.688;37.600;2023-04-03T04:51:29;99284.44;;;9.83;59.14
70200;BME280;57587;55.688;37.600;2023-04-03T04:54:16;99291.50;;;10.06;58.69
70200;BME280;57587;55.688;37.600;2023-04-03T04:56:45;99290.66;;;10.05;57.70
70200;BME280;57587;55.688;37.600;2023-04-03T04:59:12;99293.25;;;10.13;57.58
70200;BME280;57587;55.688;37.600;2023-04-03T05:01:40;99296.09;;;10.27;57.66
70200;BME280;57587;55.688;37.600;2023-04-03T05:04:11;99292.03;;;10.31;56.39
70200;BME280;57587;55.688;37.600;2023-04-03T05:06:40;99295.25;;;10.41;56.66
70200;BME280;57587;55.688;37.600;2023-04-03T05:09:12;99286.13;;;10.57;56.21
70200;BME280;57587;55.688;37.600;2023-04-03T05:11:42;99286.69;;;10.52;55.34
70200;BME280;57587;55.688;37.600;2023-04-03T05:14:12;99290.41;;;10.51;55.87
70200;BME280;57587;55.688;37.600;2023-04-03T05:16:39;99287.28;;;10.48;55.12
70200;BME280;57587;55.688;37.600;2023-04-03T05:19:06;99289.50;;;10.44;55.28
70200;BME280;57587;55.688;37.600;2023-04-03T05:21:34;99287.31;;;10.33;55.56
70200;BME280;57587;55.688;37.600;2023-04-03T05:24:07;99292.50;;;10.34;55.00
70200;BME280;57587;55.688;37.600;2023-04-03T05:26:39;99294.53;;;10.32;55.18
70200;BME280;57587;55.688;37.600;2023-04-03T05:29:07;99284.38;;;10.28;55.61
70200;BME280;57587;55.688;37.600;2023-04-03T05:31:35;99287.78;;;10.22;55.68
70200;BME280;57587;55.688;37.600;2023-04-03T05:34:02;99283.31;;;10.07;56.03
70200;BME280;57587;55.688;37.600;2023-04-03T05:36:32;99295.75;;;10.00;56.11
70200;BME280;57587;55.688;37.600;2023-04-03T05:39:03;99295.94;;;9.99;55.96
70200;BME280;57587;55.688;37.600;2023-04-03T05:41:32;99310.88;;;9.93;55.93
70200;BME280;57587;55.688;37.600;2023-04-03T05:44:00;99299.00;;;9.96;56.27
70200;BME280;57587;55.688;37.600;2023-04-03T05:46:27;99300.56;;;9.90;56.58
70200;BME280;57587;55.688;37.600;2023-04-03T05:48:56;99305.53;;;9.93;56.17
70200;BME280;57587;55.688;37.600;2023-04-03T05:51:36;99299.81;;;9.96;56.34
70200;BME280;57587;55.688;37.600;2023-04-03T05:54:23;99308.28;;;10.00;55.90
70200;BME280;57587;55.688;37.600;2023-04-03T05:56:55;99308.72;;;10.03;56.20
70200;BME280;57587;55.688;37.600;2023-04-03T05:59:23;99313.53;;;9.93;55.94
70200;BME280;57587;55.688;37.600;2023-04-03T06:01:54;99313.75;;;9.91;56.17
70200;BME280;57587;55.688;37.600;2023-04-03T06:04:21;99325.78;;;10.02;55.80
70200;BME280;57587;55.688;37.600;2023-04-03T06:06:54;99317.50;;;9.97;55.84
70200;BME280;57587;55.688;37.600;2023-04-03T06:09:25;99327.47;;;9.88;56.59
70200;BME280;57587;55.688;37.600;2023-04-03T06:11:53;99334.94;;;9.93;56.86
70200;BME280;57587;55.688;37.600;2023-04-03T06:14:23;99334.47;;;10.04;56.15
70200;BME280;57587;55.688;37.600;2023-04-03T06:16:50;99336.47;;;10.02;56.82
70200;BME280;57587;55.688;37.600;2023-04-03T06:19:17;99333.06;;;10.08;56.11
70200;BME280;57587;55.688;37.600;2023-04-03T06:21:49;99334.06;;;10.22;56.44
70200;BME280;57587;55.688;37.600;2023-04-03T06:24:18;99328.19;;;10.27;56.32
70200;BME280;57587;55.688;37.600;2023-04-03T06:26:47;99328.31;;;10.40;55.66
70200;BME280;57587;55.688;37.600;2023-04-03T06:29:14;99326.94;;;10.44;55.80
70200;BME280;57587;55.688;37.600;2023-04-03T06:31:41;99322.50;;;10.51;54.92
70200;BME280;57587;55.688;37.600;2023-04-03T06:34:08;99325.19;;;10.73;55.08
70200;BME280;57587;55.688;37.600;2023-04-03T06:36:35;99321.63;;;10.87;54.65
70200;BME280;57587;55.688;37.600;2023-04-03T06:39:03;99321.47;;;11.17;54.94
70200;BME280;57587;55.688;37.600;2023-04-03T06:41:30;99328.63;;;11.38;53.60
70200;BME280;57587;55.688;37.600;2023-04-03T06:43:58;99328.56;;;11.59;53.24
70200;BME280;57587;55.688;37.600;2023-04-03T06:46:26;99328.94;;;11.84;52.58
70200;BME280;57587;55.688;37.600;2023-04-03T06:48:53;99329.53;;;12.14;51.50
70200;BME280;57587;55.688;37.600;2023-04-03T06:51:24;99331.72;;;12.59;50.78
70200;BME280;57587;55.688;37.600;2023-04-03T06:53:53;99336.53;;;13.10;49.47
70200;BME280;57587;55.688;37.600;2023-04-03T06:56:20;99326.03;;;13.55;48.17
70200;BME280;57587;55.688;37.600;2023-04-03T06:58:48;99321.84;;;13.79;46.69
70200;BME280;57587;55.688;37.600;2023-04-03T07:01:16;99327.72;;;14.14;46.38
70200;BME280;57587;55.688;37.600;2023-04-03T07:03:44;99332.81;;;14.36;45.22
70200;BME280;57587;55.688;37.600;2023-04-03T07:06:14;99325.88;;;14.66;45.01
70200;BME280;57587;55.688;37.600;2023-04-03T07:08:43;99330.50;;;15.16;44.35
70200;BME280;57587;55.688;37.600;2023-04-03T07:11:11;99331.66;;;15.95;43.18
70200;BME280;57587;55.688;37.600;2023-04-03T07:13:38;99326.31;;;16.55;41.18
70200;BME280;57587;55.688;37.600;2023-04-03T07:16:06;99328.88;;;17.11;39.87
70200;BME280;57587;55.688;37.600;2023-04-03T07:18:33;99321.53;;;17.53;39.13
70200;BME280;57587;55.688;37.600;2023-04-03T07:21:01;99323.38;;;17.76;38.27
70200;BME280;57587;55.688;37.600;2023-04-03T07:23:29;99332.06;;;18.13;37.43
70200;BME280;57587;55.688;37.600;2023-04-03T07:25:56;99336.47;;;18.43;36.39
70200;BME280;57587;55.688;37.600;2023-04-03T07:28:23;99328.31;;;18.83;35.94
70200;BME280;57587;55.688;37.600;2023-04-03T07:33:26;99328.75;;;19.76;34.26
70200;BME280;57587;55.688;37.600;2023-04-03T07:35:53;99338.09;;;19.86;33.53
70200;BME280;57587;55.688;37.600;2023-04-03T07:38:21;99328.84;;;20.47;32.69
70200;BME280;57587;55.688;37.600;2023-04-03T07:40:49;99337.66;;;21.14;32.04
70200;BME280;57587;55.688;37.600;2023-04-03T07:43:18;99338.06;;;21.28;30.80
70200;BME280;57587;55.688;37.600;2023-04-03T07:45:46;99341.00;;;21.21;31.08
70200;BME280;57587;55.688;37.600;2023-04-03T07:48:18;99334.06;;;21.73;30.70
70200;BME280;57587;55.688;37.600;2023-04-03T07:50:45;99339.41;;;22.05;29.60
70200;BME280;57587;55.688;37.600;2023-04-03T07:53:13;99336.53;;;21.74;30.16
70200;BME280;57587;55.688;37.600;2023-04-03T07:55:41;99333.78;;;21.05;30.92
70200;BME280;57587;55.688;37.600;2023-04-03T07:58:14;99333.63;;;20.40;32.20
70200;BME280;57587;55.688;37.600;2023-04-03T08:00:41;99325.66;;;19.90;33.14
70200;BME280;57587;55.688;37.600;2023-04-03T08:03:10;99327.59;;;19.39;34.09
70200;BME280;57587;55.688;37.600;2023-04-03T08:05:40;99334.00;;;18.99;34.58
70200;BME280;57587;55.688;37.600;2023-04-03T08:08:10;99349.13;;;18.54;34.93
70200;BME280;57587;55.688;37.600;2023-04-03T08:10:37;99339.47;;;18.18;35.59
70200;BME280;57587;55.688;37.600;2023-04-03T08:13:05;99340.47;;;17.88;36.42
70200;BME280;57587;55.688;37.600;2023-04-03T08:15:32;99343.38;;;17.40;37.41
70200;BME280;57587;55.688;37.600;2023-04-03T08:18:00;99344.38;;;17.03;38.27
70200;BME280;57587;55.688;37.600;2023-04-03T08:20:28;99333.78;;;16.72;39.35
70200;BME280;57587;55.688;37.600;2023-04-03T08:22:55;99332.59;;;16.68;39.12
70200;BME280;57587;55.688;37.600;2023-04-03T08:25:22;99344.47;;;16.67;39.14
70200;BME280;57587;55.688;37.600;2023-04-03T08:27:49;99341.63;;;16.62;39.64
70200;BME280;57587;55.688;37.600;2023-04-03T08:30:16;99340.88;;;16.54;39.39
70200;BME280;57587;55.688;37.600;2023-04-03T08:32:44;99338.94;;;16.43;39.76
70200;BME280;57587;55.688;37.600;2023-04-03T08:35:11;99340.69;;;16.19;40.32
70200;BME280;57587;55.688;37.600;2023-04-03T08:37:39;99347.16;;;16.18;40.11
70200;BME280;57587;55.688;37.600;2023-04-03T08:40:10;99350.22;;;16.22;40.30
70200;BME280;57587;55.688;37.600;2023-04-03T08:42:51;99349.94;;;16.30;40.40
70200;BME280;57587;55.688;37.600;2023-04-03T08:45:45;99349.03;;;16.36;40.13
70200;BME280;57587;55.688;37.600;2023-04-03T08:48:21;99348.25;;;16.29;40.37
70200;BME280;57587;55.688;37.600;2023-04-03T08:50:58;99360.56;;;16.25;40.50
70200;BME280;57587;55.688;37.600;2023-04-03T08:53:32;99363.88;;;16.27;40.81
70200;BME280;57587;55.688;37.600;2023-04-03T08:56:06;99362.25;;;16.07;40.53
70200;BME280;57587;55.688;37.600;2023-04-03T08:58:47;99357.41;;;16.09;40.58
70200;BME280;57587;55.688;37.600;2023-04-03T09:01:29;99365.22;;;15.99;40.72
70200;BME280;57587;55.688;37.600;2023-04-03T09:04:12;99370.63;;;15.99;40.71
70200;BME280;57587;55.688;37.600;2023-04-03T09:06:42;99369.19;;;15.97;41.05
70200;BME280;57587;55.688;37.600;2023-04-03T09:09:29;99371.66;;;15.80;40.97
70200;BME280;57587;55.688;37.600;2023-04-03T09:12:04;99376.22;;;16.16;40.60
70200;BME280;57587;55.688;37.600;2023-04-03T09:14:41;99373.00;;;16.44;39.93
70200;BME280;57587;55.688;37.600;2023-04-03T09:25:54;99379.00;;;16.28;39.91
70200;BME280;57587;55.688;37.600;2023-04-03T09:28:23;99368.00;;;16.48;39.41
70200;BME280;57587;55.688;37.600;2023-04-03T09:30:50;99373.59;;;16.46;39.01
70200;BME280;57587;55.688;37.600;2023-04-03T09:33:17;99375.41;;;16.52;39.04
70200;BME280;57587;55.688;37.600;2023-04-03T09:35:45;99370.88;;;16.65;38.93
70200;BME280;57587;55.688;37.600;2023-04-03T09:38:18;99381.25;;;16.49;38.47
70200;BME280;57587;55.688;37.600;2023-04-03T09:40:50;99376.47;;;16.14;39.02
70200;BME280;57587;55.688;37.600;2023-04-03T09:45:52;99380.88;;;15.90;39.66
70200;BME280;57587;55.688;37.600;2023-04-03T09:48:28;99378.00;;;15.67;40.05
70200;BME280;57587;55.688;37.600;2023-04-03T09:50:57;99379.50;;;15.56;39.80
70200;BME280;57587;55.688;37.600;2023-04-03T09:58:46;99388.28;;;15.77;39.58
70200;BME280;57587;55.688;37.600;2023-04-03T10:01:29;99387.78;;;15.86;39.45
70200;BME280;57587;55.688;37.600;2023-04-03T10:04:10;99383.94;;;15.94;38.90
70200;BME280;57587;55.688;37.600;2023-04-03T10:06:52;99378.25;;;15.84;39.76
70200;BME280;57587;55.688;37.600;2023-04-03T10:09:26;99380.34;;;16.00;39.53
70200;BME280;57587;55.688;37.600;2023-04-03T10:17:49;99380.78;;;15.79;40.43
70200;BME280;57587;55.688;37.600;2023-04-03T10:20:35;99384.59;;;15.71;40.08
70200;BME280;57587;55.688;37.600;2023-04-03T10:23:40;99380.13;;;15.83;39.97
70200;BME280;57587;55.688;37.600;2023-04-03T10:34:33;99400.56;;;15.41;40.12
70200;BME280;57587;55.688;37.600;2023-04-03T10:37:25;99388.75;;;15.42;40.86
70200;BME280;57587;55.688;37.600;2023-04-03T10:39:54;99390.97;;;15.52;40.76
70200;BME280;57587;55.688;37.600;2023-04-03T10:45:26;99390.56;;;15.48;40.23
70200;BME280;57587;55.688;37.600;2023-04-03T10:50:58;99405.59;;;15.62;40.36
70200;BME280;57587;55.688;37.600;2023-04-03T10:53:44;99390.47;;;15.61;40.17
70200;BME280;57587;55.688;37.600;2023-04-03T10:59:02;99387.91;;;15.66;40.25
70200;BME280;57587;55.688;37.600;2023-04-03T11:01:33;99394.81;;;15.37;40.67
70200;BME280;57587;55.688;37.600;2023-04-03T11:04:04;99392.66;;;15.21;41.51
70200;BME280;57587;55.688;37.600;2023-04-03T11:06:42;99391.56;;;15.54;41.24
70200;BME280;57587;55.688;37.600;2023-04-03T11:09:25;99378.38;;;15.71;40.89
70200;BME280;57587;55.688;37.600;2023-04-03T11:12:00;99379.13;;;15.78;40.86
70200;BME280;57587;55.688;37.600;2023-04-03T11:14:31;99391.06;;;15.88;40.75
70200;BME280;57587;55.688;37.600;2023-04-03T11:17:08;99386.69;;;15.69;41.46
70200;BME280;57587;55.688;37.600;2023-04-03T11:19:43;99384.72;;;15.76;41.49
70200;BME280;57587;55.688;37.600;2023-04-03T11:22:33;99381.84;;;15.96;41.56
70200;BME280;57587;55.688;37.600;2023-04-03T11:25:24;99383.47;;;15.79;41.25
70200;BME280;57587;55.688;37.600;2023-04-03T11:27:55;99382.22;;;15.81;41.84
70200;BME280;57587;55.688;37.600;2023-04-03T11:35:37;99379.78;;;15.98;40.79
70200;BME280;57587;55.688;37.600;2023-04-03T11:38:16;99380.59;;;15.99;40.76
70200;BME280;57587;55.688;37.600;2023-04-03T11:40:46;99376.00;;;15.99;40.71
70200;BME280;57587;55.688;37.600;2023-04-03T11:50:59;99379.06;;;15.59;41.64
70200;BME280;57587;55.688;37.600;2023-04-03T11:53:37;99380.13;;;15.58;41.49
70200;BME280;57587;55.688;37.600;2023-04-03T12:01:55;99376.38;;;15.59;41.68
70200;BME280;57587;55.688;37.600;2023-04-03T12:04:25;99381.22;;;15.51;41.52
70200;BME280;57587;55.688;37.600;2023-04-03T12:07:11;99379.88;;;15.35;41.70
70200;BME280;57587;55.688;37.600;2023-04-03T12:14:55;99374.53;;;15.03;42.07
70200;BME280;57587;55.688;37.600;2023-04-03T12:17:25;99374.09;;;15.06;42.13
70200;BME280;57587;55.688;37.600;2023-04-03T12:19:53;99378.19;;;14.77;42.63
70200;BME280;57587;55.688;37.600;2023-04-03T12:22:21;99374.94;;;14.68;42.79
70200;BME280;57587;55.688;37.600;2023-04-03T12:24:50;99381.13;;;14.75;42.84
70200;BME280;57587;55.688;37.600;2023-04-03T12:27:22;99383.56;;;14.84;42.85
70200;BME280;57587;55.688;37.600;2023-04-03T12:32:45;99382.47;;;14.53;42.30
70200;BME280;57587;55.688;37.600;2023-04-03T12:38:33;99385.50;;;14.05;42.90
70200;BME280;57587;55.688;37.600;2023-04-03T12:46:50;99391.69;;;14.05;43.26
70200;BME280;57587;55.688;37.600;2023-04-03T12:51:51;99388.84;;;13.94;43.51
70200;BME280;57587;55.688;37.600;2023-04-03T12:54:23;99399.84;;;13.72;43.79
70200;BME280;57587;55.688;37.600;2023-04-03T12:57:12;99402.94;;;13.69;44.44
70200;BME280;57587;55.688;37.600;2023-04-03T12:59:39;99388.66;;;13.55;44.96
70200;BME280;57587;55.688;37.600;2023-04-03T13:02:21;99398.38;;;13.50;45.09
70200;BME280;57587;55.688;37.600;2023-04-03T13:04:51;99397.16;;;13.46;45.13
70200;BME280;57587;55.688;37.600;2023-04-03T13:07:33;99389.09;;;13.32;45.33
70200;BME280;57587;55.688;37.600;2023-04-03T13:12:44;99395.94;;;13.35;45.47
70200;BME280;57587;55.688;37.600;2023-04-03T13:15:18;99396.53;;;13.44;45.28
70200;BME280;57587;55.688;37.600;2023-04-03T13:17:46;99395.28;;;13.40;45.44
70200;BME280;57587;55.688;37.600;2023-04-03T13:20:32;99398.81;;;13.40;45.54
70200;BME280;57587;55.688;37.600;2023-04-03T13:23:08;99400.03;;;13.37;45.54
70200;BME280;57587;55.688;37.600;2023-04-03T13:25:42;99401.91;;;13.30;46.07
70200;BME280;57587;55.688;37.600;2023-04-03T13:28:12;99404.56;;;13.24;46.37
70200;BME280;57587;55.688;37.600;2023-04-03T13:30:41;99403.09;;;13.21;46.23
70200;BME280;57587;55.688;37.600;2023-04-03T13:33:24;99398.56;;;13.22;46.52
70200;BME280;57587;55.688;37.600;2023-04-03T13:36:00;99393.81;;;13.17;46.22
70200;BME280;57587;55.688;37.600;2023-04-03T13:38:30;99395.88;;;13.15;46.46
70200;BME280;57587;55.688;37.600;2023-04-03T13:41:21;99401.69;;;13.25;46.59
70200;BME280;57587;55.688;37.600;2023-04-03T13:47:14;99393.44;;;13.27;46.65
70200;BME280;57587;55.688;37.600;2023-04-03T13:49:45;99401.44;;;13.13;46.37
70200;BME280;57587;55.688;37.600;2023-04-03T13:52:32;99395.44;;;13.18;46.99
70200;BME280;57587;55.688;37.600;2023-04-03T13:55:51;99399.19;;;13.24;46.55
70200;BME280;57587;55.688;37.600;2023-04-03T14:05:45;99400.66;;;13.40;46.83
70200;BME280;57587;55.688;37.600;2023-04-03T14:08:13;99401.72;;;13.32;47.17
70200;BME280;57587;55.688;37.600;2023-04-03T14:10:40;99391.16;;;13.30;46.55
70200;BME280;57587;55.688;37.600;2023-04-03T14:13:13;99393.44;;;13.33;46.65
70200;BME280;57587;55.688;37.600;2023-04-03T14:15:43;99395.50;;;13.45;46.61
70200;BME280;57587;55.688;37.600;2023-04-03T14:18:12;99397.97;;;13.53;46.72
70200;BME280;57587;55.688;37.600;2023-04-03T14:20:40;99396.53;;;13.57;46.95
70200;BME280;57587;55.688;37.600;2023-04-03T14:23:07;99401.72;;;13.52;46.96
70200;BME280;57587;55.688;37.600;2023-04-03T14:25:36;99399.00;;;13.58;47.15
70200;BME280;57587;55.688;37.600;2023-04-03T14:28:19;99396.13;;;13.60;47.05
70200;BME280;57587;55.688;37.600;2023-04-03T14:30:49;99395.91;;;13.55;47.01
70200;BME280;57587;55.688;37.600;2023-04-03T14:33:21;99400.06;;;13.51;47.50
70200;BME280;57587;55.688;37.600;2023-04-03T14:35:49;99397.97;;;13.53;47.90
70200;BME280;57587;55.688;37.600;2023-04-03T14:38:34;99403.78;;;13.56;47.29
70200;BME280;57587;55.688;37.600;2023-04-03T14:41:01;99395.91;;;13.55;47.56
70200;BME280;57587;55.688;37.600;2023-04-03T14:43:42;99399.03;;;13.52;47.44
70200;BME280;57587;55.688;37.600;2023-04-03T14:46:15;99400.06;;;13.51;47.35
70200;BME280;57587;55.688;37.600;2023-04-03T14:48:43;99403.97;;;13.48;47.37
70200;BME280;57587;55.688;37.600;2023-04-03T14:51:12;99397.56;;;13.49;47.50
70200;BME280;57587;55.688;37.600;2023-04-03T14:53:41;99398.19;;;13.45;47.63